sensor_id;sensor_type;location;lat;lon;timestamp;P1;durP1;ratioP1;P2;durP2;ratioP2
74551;SDS011;63025;55.472;38.432;2023-02-01T00:01:39;26.63;;;12.43;;
74551;SDS011;63025;55.472;38.432;2023-02-01T00:04:05;23.50;;;11.77;;
74551;SDS011;63025;55.472;38.432;2023-02-01T00:06:31;26.40;;;11.82;;
74551;SDS011;63025;55.472;38.432;2023-02-01T00:08:56;27.33;;;12.45;;
74551;SDS011;63025;55.472;38.432;2023-02-01T00:11:22;27.40;;;12.38;;
74551;SDS011;63025;55.472;38.432;2023-02-01T00:13:49;25.38;;;11.40;;
74551;SDS011;63025;55.472;38.432;2023-02-01T00:16:16;25.33;;;12.05;;
74551;SDS011;63025;55.472;38.432;2023-02-01T00:18:48;27.33;;;12.25;;
74551;SDS011;63025;55.472;38.432;2023-02-01T00:21:16;25.73;;;11.65;;
74551;SDS011;63025;55.472;38.432;2023-02-01T00:23:44;25.30;;;12.48;;
74551;SDS011;63025;55.472;38.432;2023-02-01T00:26:19;26.65;;;12.93;;
74551;SDS011;63025;55.472;38.432;2023-02-01T00:28:52;28.38;;;12.35;;
74551;SDS011;63025;55.472;38.432;2023-02-01T00:31:18;26.48;;;13.13;;
74551;SDS011;63025;55.472;38.432;2023-02-01T00:33:46;24.42;;;11.43;;
74551;SDS011;63025;55.472;38.432;2023-02-01T00:36:14;28.88;;;12.35;;
74551;SDS011;63025;55.472;38.432;2023-02-01T00:38:39;25.63;;;11.48;;
74551;SDS011;63025;55.472;38.432;2023-02-01T00:41:06;27.17;;;13.02;;
74551;SDS011;63025;55.472;38.432;2023-02-01T00:43:39;26.50;;;12.38;;
74551;SDS011;63025;55.472;38.432;2023-02-01T00:46:05;26.83;;;12.85;;
74551;SDS011;63025;55.472;38.432;2023-02-01T00:48:31;25.70;;;11.93;;
74551;SDS011;63025;55.472;38.432;2023-02-01T00:50:59;24.83;;;12.18;;
74551;SDS011;63025;55.472;38.432;2023-02-01T00:53:29;26.98;;;12.40;;
74551;SDS011;63025;55.472;38.432;2023-02-01T00:55:56;26.33;;;12.90;;
74551;SDS011;63025;55.472;38.432;2023-02-01T00:58:22;26.45;;;11.68;;
74551;SDS011;63025;55.472;38.432;2023-02-01T01:03:38;25.67;;;11.43;;
74551;SDS011;63025;55.472;38.432;2023-02-01T01:06:23;25.77;;;11.63;;
74551;SDS011;63025;55.472;38.432;2023-02-01T01:08:54;24.45;;;12.65;;
74551;SDS011;63025;55.472;38.432;2023-02-01T01:11:22;28.35;;;12.65;;
74551;SDS011;63025;55.472;38.432;2023-02-01T01:13:51;28.25;;;12.38;;
74551;SDS011;63025;55.472;38.432;2023-02-01T01:16:18;28.92;;;13.13;;
74551;SDS011;63025;55.472;38.432;2023-02-01T01:18:45;27.23;;;13.45;;
74551;SDS011;63025;55.472;38.432;2023-02-01T01:21:12;26.35;;;12.25;;
74551;SDS011;63025;55.472;38.432;2023-02-01T01:23:40;28.25;;;12.82;;
74551;SDS011;63025;55.472;38.432;2023-02-01T01:26:06;25.42;;;12.23;;
74551;SDS011;63025;55.472;38.432;2023-02-01T01:28:34;25.48;;;12.00;;
74551;SDS011;63025;55.472;38.432;2023-02-01T01:31:00;25.25;;;12.68;;
74551;SDS011;63025;55.472;38.432;2023-02-01T01:33:26;25.58;;;12.35;;
74551;SDS011;63025;55.472;38.432;2023-02-01T01:35:51;29.83;;;13.00;;
74551;SDS011;63025;55.472;38.432;2023-02-01T01:38:17;26.85;;;12.05;;
74551;SDS011;63025;55.472;38.432;2023-02-01T01:40:46;23.92;;;11.73;;
74551;SDS011;63025;55.472;38.432;2023-02-01T01:43:16;24.50;;;12.50;;
74551;SDS011;63025;55.472;38.432;2023-02-01T01:45:45;26.65;;;12.88;;
74551;SDS011;63025;55.472;38.432;2023-02-01T01:51:05;28.00;;;12.20;;
74551;SDS011;63025;55.472;38.432;2023-02-01T01:53:41;30.80;;;12.90;;
74551;SDS011;63025;55.472;38.432;2023-02-01T01:56:11;26.73;;;12.82;;
74551;SDS011;63025;55.472;38.432;2023-02-01T01:58:37;34.38;;;14.05;;
74551;SDS011;63025;55.472;38.432;2023-02-01T02:01:03;26.08;;;12.45;;
74551;SDS011;63025;55.472;38.432;2023-02-01T02:03:34;30.10;;;13.07;;
74551;SDS011;63025;55.472;38.432;2023-02-01T02:06:27;26.63;;;12.38;;
74551;SDS011;63025;55.472;38.432;2023-02-01T02:09:02;27.20;;;12.10;;
74551;SDS011;63025;55.472;38.432;2023-02-01T02:11:28;25.92;;;12.13;;
74551;SDS011;63025;55.472;38.432;2023-02-01T02:13:54;28.65;;;13.15;;
74551;SDS011;63025;55.472;38.432;2023-02-01T02:30:57;25.25;;;12.30;;
74551;SDS011;63025;55.472;38.432;2023-02-01T02:33:47;25.80;;;11.98;;
74551;SDS011;63025;55.472;38.432;2023-02-01T02:39:27;25.27;;;11.02;;
74551;SDS011;63025;55.472;38.432;2023-02-01T02:50:20;26.10;;;11.25;;
74551;SDS011;63025;55.472;38.432;2023-02-01T02:53:21;26.27;;;11.85;;
74551;SDS011;63025;55.472;38.432;2023-02-01T02:56:12;24.85;;;12.02;;
74551;SDS011;63025;55.472;38.432;2023-02-01T02:58:58;27.77;;;11.80;;
74551;SDS011;63025;55.472;38.432;2023-02-01T03:01:43;26.88;;;11.90;;
74551;SDS011;63025;55.472;38.432;2023-02-01T03:04:27;26.23;;;12.00;;
74551;SDS011;63025;55.472;38.432;2023-02-01T03:06:54;27.10;;;12.27;;
74551;SDS011;63025;55.472;38.432;2023-02-01T03:09:22;23.65;;;12.10;;
74551;SDS011;63025;55.472;38.432;2023-02-01T03:11:48;25.42;;;12.45;;
74551;SDS011;63025;55.472;38.432;2023-02-01T03:14:37;26.25;;;11.90;;
74551;SDS011;63025;55.472;38.432;2023-02-01T03:17:12;27.60;;;13.70;;
74551;SDS011;63025;55.472;38.432;2023-02-01T03:19:42;26.17;;;12.40;;
74551;SDS011;63025;55.472;38.432;2023-02-01T03:22:15;25.85;;;12.25;;
74551;SDS011;63025;55.472;38.432;2023-02-01T03:24:47;26.38;;;12.90;;
74551;SDS011;63025;55.472;38.432;2023-02-01T03:27:24;26.77;;;12.20;;
74551;SDS011;63025;55.472;38.432;2023-02-01T03:30:17;27.10;;;12.00;;
74551;SDS011;63025;55.472;38.432;2023-02-01T03:32:47;27.23;;;11.98;;
74551;SDS011;63025;55.472;38.432;2023-02-01T03:37:52;28.10;;;12.70;;
74551;SDS011;63025;55.472;38.432;2023-02-01T03:40:22;25.00;;;11.88;;
74551;SDS011;63025;55.472;38.432;2023-02-01T03:42:50;27.17;;;12.07;;
74551;SDS011;63025;55.472;38.432;2023-02-01T03:45:22;29.80;;;13.00;;
74551;SDS011;63025;55.472;38.432;2023-02-01T03:47:54;28.77;;;12.30;;
74551;SDS011;63025;55.472;38.432;2023-02-01T03:50:25;26.85;;;12.55;;
74551;SDS011;63025;55.472;38.432;2023-02-01T03:52:53;25.60;;;12.43;;
74551;SDS011;63025;55.472;38.432;2023-02-01T03:55:24;29.02;;;12.25;;
74551;SDS011;63025;55.472;38.432;2023-02-01T03:57:53;25.40;;;12.98;;
74551;SDS011;63025;55.472;38.432;2023-02-01T04:00:24;26.98;;;12.75;;
74551;SDS011;63025;55.472;38.432;2023-02-01T04:02:54;33.25;;;13.85;;
74551;SDS011;63025;55.472;38.432;2023-02-01T04:05:21;28.25;;;13.98;;
74551;SDS011;63025;55.472;38.432;2023-02-01T04:07:57;30.98;;;13.57;;
74551;SDS011;63025;55.472;38.432;2023-02-01T04:10:22;32.97;;;13.40;;
74551;SDS011;63025;55.472;38.432;2023-02-01T04:12:48;29.80;;;13.65;;
74551;SDS011;63025;55.472;38.432;2023-02-01T04:15:14;29.70;;;13.68;;
74551;SDS011;63025;55.472;38.432;2023-02-01T04:17:40;29.67;;;13.13;;
74551;SDS011;63025;55.472;38.432;2023-02-01T04:20:06;27.20;;;13.60;;
74551;SDS011;63025;55.472;38.432;2023-02-01T04:22:32;31.48;;;13.15;;
74551;SDS011;63025;55.472;38.432;2023-02-01T04:24:58;32.80;;;14.75;;
74551;SDS011;63025;55.472;38.432;2023-02-01T04:27:23;29.45;;;12.93;;
74551;SDS011;63025;55.472;38.432;2023-02-01T04:29:49;28.27;;;13.77;;
74551;SDS011;63025;55.472;38.432;2023-02-01T04:32:15;30.50;;;13.30;;
74551;SDS011;63025;55.472;38.432;2023-02-01T04:34:41;29.25;;;13.70;;
74551;SDS011;63025;55.472;38.432;2023-02-01T04:37:07;29.73;;;13.85;;
74551;SDS011;63025;55.472;38.432;2023-02-01T04:39:33;34.78;;;14.07;;
74551;SDS011;63025;55.472;38.432;2023-02-01T04:41:58;29.67;;;14.40;;
74551;SDS011;63025;55.472;38.432;2023-02-01T04:44:24;27.98;;;14.35;;
74551;SDS011;63025;55.472;38.432;2023-02-01T04:46:50;30.13;;;14.77;;
74551;SDS011;63025;55.472;38.432;2023-02-01T04:49:16;29.15;;;13.45;;
74551;SDS011;63025;55.472;38.432;2023-02-01T04:51:42;26.90;;;13.02;;
74551;SDS011;63025;55.472;38.432;2023-02-01T04:54:08;31.75;;;13.88;;
74551;SDS011;63025;55.472;38.432;2023-02-01T04:56:36;27.48;;;13.68;;
74551;SDS011;63025;55.472;38.432;2023-02-01T04:59:02;27.63;;;13.27;;
74551;SDS011;63025;55.472;38.432;2023-02-01T05:01:28;28.35;;;13.00;;
74551;SDS011;63025;55.472;38.432;2023-02-01T05:03:54;29.13;;;13.35;;
74551;SDS011;63025;55.472;38.432;2023-02-01T05:06:20;30.05;;;13.80;;
74551;SDS011;63025;55.472;38.432;2023-02-01T05:08:47;29.10;;;13.15;;
74551;SDS011;63025;55.472;38.432;2023-02-01T05:11:12;26.88;;;13.43;;
74551;SDS011;63025;55.472;38.432;2023-02-01T05:13:56;29.33;;;13.27;;
74551;SDS011;63025;55.472;38.432;2023-02-01T05:16:22;33.28;;;14.00;;
74551;SDS011;63025;55.472;38.432;2023-02-01T05:18:48;30.25;;;13.32;;
74551;SDS011;63025;55.472;38.432;2023-02-01T05:21:14;28.98;;;12.52;;
74551;SDS011;63025;55.472;38.432;2023-02-01T05:23:40;28.58;;;13.35;;
74551;SDS011;63025;55.472;38.432;2023-02-01T05:26:24;31.65;;;13.57;;
74551;SDS011;63025;55.472;38.432;2023-02-01T05:28:50;26.48;;;12.93;;
74551;SDS011;63025;55.472;38.432;2023-02-01T05:31:16;29.75;;;13.30;;
74551;SDS011;63025;55.472;38.432;2023-02-01T05:33:42;28.35;;;13.02;;
74551;SDS011;63025;55.472;38.432;2023-02-01T05:36:08;32.33;;;13.70;;
74551;SDS011;63025;55.472;38.432;2023-02-01T05:38:33;31.50;;;14.15;;
74551;SDS011;63025;55.472;38.432;2023-02-01T05:40:59;28.98;;;14.25;;
74551;SDS011;63025;55.472;38.432;2023-02-01T05:43:25;32.83;;;14.70;;
74551;SDS011;63025;55.472;38.432;2023-02-01T05:45:51;29.20;;;13.88;;
74551;SDS011;63025;55.472;38.432;2023-02-01T05:48:18;31.50;;;14.40;;
74551;SDS011;63025;55.472;38.432;2023-02-01T05:50:44;27.38;;;13.13;;
74551;SDS011;63025;55.472;38.432;2023-02-01T05:53:10;32.08;;;13.43;;
74551;SDS011;63025;55.472;38.432;2023-02-01T05:55:36;31.33;;;14.68;;
74551;SDS011;63025;55.472;38.432;2023-02-01T05:58:02;30.95;;;14.48;;
74551;SDS011;63025;55.472;38.432;2023-02-01T06:00:29;31.85;;;14.40;;
74551;SDS011;63025;55.472;38.432;2023-02-01T06:02:54;30.30;;;13.90;;
74551;SDS011;63025;55.472;38.432;2023-02-01T06:05:20;31.45;;;14.50;;
74551;SDS011;63025;55.472;38.432;2023-02-01T06:07:46;30.95;;;14.95;;
74551;SDS011;63025;55.472;38.432;2023-02-01T06:10:12;30.58;;;14.73;;
74551;SDS011;63025;55.472;38.432;2023-02-01T06:12:38;29.55;;;14.02;;
74551;SDS011;63025;55.472;38.432;2023-02-01T06:15:04;31.25;;;14.10;;
74551;SDS011;63025;55.472;38.432;2023-02-01T06:17:30;31.13;;;13.65;;
74551;SDS011;63025;55.472;38.432;2023-02-01T06:19:56;30.58;;;15.02;;
74551;SDS011;63025;55.472;38.432;2023-02-01T06:22:22;31.90;;;15.05;;
74551;SDS011;63025;55.472;38.432;2023-02-01T06:24:48;30.90;;;14.77;;
74551;SDS011;63025;55.472;38.432;2023-02-01T06:27:14;31.48;;;14.23;;
74551;SDS011;63025;55.472;38.432;2023-02-01T06:29:40;31.80;;;14.38;;
74551;SDS011;63025;55.472;38.432;2023-02-01T06:32:06;30.98;;;14.52;;
74551;SDS011;63025;55.472;38.432;2023-02-01T06:34:32;32.78;;;14.40;;
74551;SDS011;63025;55.472;38.432;2023-02-01T06:36:58;32.05;;;14.65;;
74551;SDS011;63025;55.472;38.432;2023-02-01T06:39:23;29.83;;;14.80;;
74551;SDS011;63025;55.472;38.432;2023-02-01T06:41:49;33.40;;;14.95;;
74551;SDS011;63025;55.472;38.432;2023-02-01T06:44:16;32.85;;;15.88;;
74551;SDS011;63025;55.472;38.432;2023-02-01T06:46:42;33.65;;;15.43;;
74551;SDS011;63025;55.472;38.432;2023-02-01T06:49:08;30.98;;;15.00;;
74551;SDS011;63025;55.472;38.432;2023-02-01T06:51:34;30.20;;;14.32;;
74551;SDS011;63025;55.472;38.432;2023-02-01T06:54:00;33.35;;;14.85;;
74551;SDS011;63025;55.472;38.432;2023-02-01T06:56:26;32.25;;;15.38;;
74551;SDS011;63025;55.472;38.432;2023-02-01T06:58:52;35.05;;;14.60;;
74551;SDS011;63025;55.472;38.432;2023-02-01T07:01:18;32.15;;;14.48;;
74551;SDS011;63025;55.472;38.432;2023-02-01T07:03:48;32.15;;;15.25;;
74551;SDS011;63025;55.472;38.432;2023-02-01T07:06:16;37.75;;;15.32;;
74551;SDS011;63025;55.472;38.432;2023-02-01T07:08:42;31.73;;;14.18;;
74551;SDS011;63025;55.472;38.432;2023-02-01T07:11:09;31.38;;;15.07;;
74551;SDS011;63025;55.472;38.432;2023-02-01T07:13:36;30.20;;;14.77;;
74551;SDS011;63025;55.472;38.432;2023-02-01T07:16:03;33.03;;;15.02;;
74551;SDS011;63025;55.472;38.432;2023-02-01T07:18:32;29.02;;;14.73;;
74551;SDS011;63025;55.472;38.432;2023-02-01T07:20:58;29.13;;;14.40;;
74551;SDS011;63025;55.472;38.432;2023-02-01T07:23:25;32.60;;;15.57;;
74551;SDS011;63025;55.472;38.432;2023-02-01T07:25:58;32.63;;;15.38;;
74551;SDS011;63025;55.472;38.432;2023-02-01T07:28:27;31.80;;;14.63;;
74551;SDS011;63025;55.472;38.432;2023-02-01T07:30:54;30.00;;;14.30;;
74551;SDS011;63025;55.472;38.432;2023-02-01T07:33:20;31.45;;;14.98;;
74551;SDS011;63025;55.472;38.432;2023-02-01T07:35:49;33.75;;;15.75;;
74551;SDS011;63025;55.472;38.432;2023-02-01T07:38:15;32.80;;;14.93;;
74551;SDS011;63025;55.472;38.432;2023-02-01T07:40:41;30.90;;;13.88;;
74551;SDS011;63025;55.472;38.432;2023-02-01T07:43:07;28.25;;;13.80;;
74551;SDS011;63025;55.472;38.432;2023-02-01T07:45:34;29.80;;;14.45;;
74551;SDS011;63025;55.472;38.432;2023-02-01T07:48:00;34.55;;;15.00;;
74551;SDS011;63025;55.472;38.432;2023-02-01T07:50:27;31.67;;;14.40;;
74551;SDS011;63025;55.472;38.432;2023-02-01T07:52:53;31.13;;;14.48;;
74551;SDS011;63025;55.472;38.432;2023-02-01T07:55:19;34.45;;;15.43;;
74551;SDS011;63025;55.472;38.432;2023-02-01T07:57:46;31.42;;;13.95;;
74551;SDS011;63025;55.472;38.432;2023-02-01T08:00:12;32.35;;;14.82;;
74551;SDS011;63025;55.472;38.432;2023-02-01T08:02:57;31.50;;;14.43;;
74551;SDS011;63025;55.472;38.432;2023-02-01T08:05:24;28.35;;;15.15;;
74551;SDS011;63025;55.472;38.432;2023-02-01T08:07:50;30.13;;;14.88;;
74551;SDS011;63025;55.472;38.432;2023-02-01T08:10:16;30.27;;;14.93;;
74551;SDS011;63025;55.472;38.432;2023-02-01T08:12:44;32.13;;;15.00;;
74551;SDS011;63025;55.472;38.432;2023-02-01T08:15:17;32.33;;;15.00;;
74551;SDS011;63025;55.472;38.432;2023-02-01T08:17:50;30.10;;;13.88;;
74551;SDS011;63025;55.472;38.432;2023-02-01T08:20:19;33.55;;;14.68;;
74551;SDS011;63025;55.472;38.432;2023-02-01T08:22:47;30.25;;;14.88;;
74551;SDS011;63025;55.472;38.432;2023-02-01T08:25:13;31.38;;;14.40;;
74551;SDS011;63025;55.472;38.432;2023-02-01T08:27:39;30.17;;;13.80;;
74551;SDS011;63025;55.472;38.432;2023-02-01T08:30:05;29.27;;;13.70;;
74551;SDS011;63025;55.472;38.432;2023-02-01T08:32:33;32.70;;;14.40;;
74551;SDS011;63025;55.472;38.432;2023-02-01T08:34:59;28.45;;;13.82;;
74551;SDS011;63025;55.472;38.432;2023-02-01T08:37:24;32.92;;;14.32;;
74551;SDS011;63025;55.472;38.432;2023-02-01T08:39:50;34.72;;;15.00;;
74551;SDS011;63025;55.472;38.432;2023-02-01T08:42:16;31.30;;;14.13;;
74551;SDS011;63025;55.472;38.432;2023-02-01T08:45:02;30.05;;;14.98;;
74551;SDS011;63025;55.472;38.432;2023-02-01T08:47:30;28.70;;;13.85;;
74551;SDS011;63025;55.472;38.432;2023-02-01T08:49:56;30.52;;;13.48;;
74551;SDS011;63025;55.472;38.432;2023-02-01T08:52:22;32.30;;;13.95;;
74551;SDS011;63025;55.472;38.432;2023-02-01T08:54:48;28.63;;;13.38;;
74551;SDS011;63025;55.472;38.432;2023-02-01T08:57:14;30.83;;;13.48;;
74551;SDS011;63025;55.472;38.432;2023-02-01T08:59:40;32.22;;;13.80;;
74551;SDS011;63025;55.472;38.432;2023-02-01T09:02:06;30.23;;;14.43;;
74551;SDS011;63025;55.472;38.432;2023-02-01T09:04:34;30.15;;;13.23;;
74551;SDS011;63025;55.472;38.432;2023-02-01T09:07:01;28.95;;;14.10;;
74551;SDS011;63025;55.472;38.432;2023-02-01T09:09:27;28.45;;;13.85;;
74551;SDS011;63025;55.472;38.432;2023-02-01T09:11:53;33.97;;;15.18;;
74551;SDS011;63025;55.472;38.432;2023-02-01T09:14:19;31.00;;;14.50;;
74551;SDS011;63025;55.472;38.432;2023-02-01T09:16:44;31.98;;;14.05;;
74551;SDS011;63025;55.472;38.432;2023-02-01T09:19:10;31.00;;;14.70;;
74551;SDS011;63025;55.472;38.432;2023-02-01T09:21:36;31.13;;;14.05;;
74551;SDS011;63025;55.472;38.432;2023-02-01T09:24:01;32.67;;;13.88;;
74551;SDS011;63025;55.472;38.432;2023-02-01T09:26:29;30.70;;;14.20;;
74551;SDS011;63025;55.472;38.432;2023-02-01T09:28:55;30.35;;;13.25;;
74551;SDS011;63025;55.472;38.432;2023-02-01T09:31:21;32.08;;;14.50;;
74551;SDS011;63025;55.472;38.432;2023-02-01T09:33:47;29.00;;;13.55;;
74551;SDS011;63025;55.472;38.432;2023-02-01T09:36:12;29.67;;;13.18;;
74551;SDS011;63025;55.472;38.432;2023-02-01T09:38:38;32.65;;;13.85;;
74551;SDS011;63025;55.472;38.432;2023-02-01T09:41:17;29.60;;;13.65;;
74551;SDS011;63025;55.472;38.432;2023-02-01T09:46:38;28.80;;;13.50;;
74551;SDS011;63025;55.472;38.432;2023-02-01T09:49:05;30.15;;;14.20;;
74551;SDS011;63025;55.472;38.432;2023-02-01T09:51:44;32.08;;;14.05;;
74551;SDS011;63025;55.472;38.432;2023-02-01T10:02:03;33.22;;;14.90;;
74551;SDS011;63025;55.472;38.432;2023-02-01T10:04:35;31.48;;;14.80;;
74551;SDS011;63025;55.472;38.432;2023-02-01T10:09:45;32.05;;;14.32;;
74551;SDS011;63025;55.472;38.432;2023-02-01T10:15:19;28.25;;;12.73;;
74551;SDS011;63025;55.472;38.432;2023-02-01T10:18:04;31.88;;;15.23;;
74551;SDS011;63025;55.472;38.432;2023-02-01T10:26:34;29.02;;;13.85;;
74551;SDS011;63025;55.472;38.432;2023-02-01T10:29:12;29.75;;;13.75;;
74551;SDS011;63025;55.472;38.432;2023-02-01T10:31:43;30.20;;;13.52;;
74551;SDS011;63025;55.472;38.432;2023-02-01T10:34:17;32.35;;;14.90;;
74551;SDS011;63025;55.472;38.432;2023-02-01T10:36:50;30.17;;;13.73;;
74551;SDS011;63025;55.472;38.432;2023-02-01T10:39:19;28.55;;;14.07;;
74551;SDS011;63025;55.472;38.432;2023-02-01T10:41:46;26.65;;;13.90;;
74551;SDS011;63025;55.472;38.432;2023-02-01T10:44:19;30.15;;;13.85;;
74551;SDS011;63025;55.472;38.432;2023-02-01T10:46:50;27.90;;;12.75;;
74551;SDS011;63025;55.472;38.432;2023-02-01T10:49:17;33.67;;;13.13;;
74551;SDS011;63025;55.472;38.432;2023-02-01T10:52:07;28.75;;;13.40;;
74551;SDS011;63025;55.472;38.432;2023-02-01T10:54:40;29.60;;;13.02;;
74551;SDS011;63025;55.472;38.432;2023-02-01T10:57:08;29.50;;;13.57;;
74551;SDS011;63025;55.472;38.432;2023-02-01T10:59:35;31.63;;;14.07;;
74551;SDS011;63025;55.472;38.432;2023-02-01T11:02:05;29.52;;;13.52;;
74551;SDS011;63025;55.472;38.432;2023-02-01T11:05:03;26.65;;;13.30;;
74551;SDS011;63025;55.472;38.432;2023-02-01T11:07:31;31.63;;;13.95;;
74551;SDS011;63025;55.472;38.432;2023-02-01T11:09:57;27.42;;;13.48;;
74551;SDS011;63025;55.472;38.432;2023-02-01T11:12:33;25.15;;;12.45;;
74551;SDS011;63025;55.472;38.432;2023-02-01T11:17:47;26.63;;;13.70;;
74551;SDS011;63025;55.472;38.432;2023-02-01T11:20:47;25.95;;;12.13;;
74551;SDS011;63025;55.472;38.432;2023-02-01T11:23:16;28.25;;;13.07;;
74551;SDS011;63025;55.472;38.432;2023-02-01T11:25:54;29.88;;;13.57;;
74551;SDS011;63025;55.472;38.432;2023-02-01T11:28:23;30.55;;;13.75;;
74551;SDS011;63025;55.472;38.432;2023-02-01T11:30:53;29.00;;;13.25;;
74551;SDS011;63025;55.472;38.432;2023-02-01T11:33:23;26.25;;;12.68;;
74551;SDS011;63025;55.472;38.432;2023-02-01T11:35:55;28.58;;;12.43;;
74551;SDS011;63025;55.472;38.432;2023-02-01T11:38:27;26.92;;;11.93;;
74551;SDS011;63025;55.472;38.432;2023-02-01T11:40:55;27.70;;;13.52;;
74551;SDS011;63025;55.472;38.432;2023-02-01T11:43:37;28.15;;;13.07;;
74551;SDS011;63025;55.472;38.432;2023-02-01T11:46:18;24.63;;;12.05;;
74551;SDS011;63025;55.472;38.432;2023-02-01T11:48:53;33.75;;;13.65;;
74551;SDS011;63025;55.472;38.432;2023-02-01T11:56:57;27.13;;;12.05;;
74551;SDS011;63025;55.472;38.432;2023-02-01T12:04:55;25.60;;;12.30;;
74551;SDS011;63025;55.472;38.432;2023-02-01T12:12:53;26.25;;;12.23;;
74551;SDS011;63025;55.472;38.432;2023-02-01T12:23:19;26.17;;;11.82;;
74551;SDS011;63025;55.472;38.432;2023-02-01T12:31:13;26.05;;;11.65;;
74551;SDS011;63025;55.472;38.432;2023-02-01T12:37:02;25.42;;;11.57;;
74551;SDS011;63025;55.472;38.432;2023-02-01T12:39:39;26.17;;;11.35;;
74551;SDS011;63025;55.472;38.432;2023-02-01T12:45:01;28.08;;;12.45;;
74551;SDS011;63025;55.472;38.432;2023-02-01T12:47:44;24.73;;;11.43;;
74551;SDS011;63025;55.472;38.432;2023-02-01T12:52:46;24.70;;;11.73;;
74551;SDS011;63025;55.472;38.432;2023-02-01T12:57:44;22.85;;;9.77;;
74551;SDS011;63025;55.472;38.432;2023-02-01T13:00:16;26.00;;;10.80;;
74551;SDS011;63025;55.472;38.432;2023-02-01T13:05:32;27.33;;;10.70;;
74551;SDS011;63025;55.472;38.432;2023-02-01T13:10:38;23.55;;;11.20;;
74551;SDS011;63025;55.472;38.432;2023-02-01T13:18:46;20.77;;;10.30;;
74551;SDS011;63025;55.472;38.432;2023-02-01T13:21:24;25.65;;;11.43;;
74551;SDS011;63025;55.472;38.432;2023-02-01T13:23:54;25.92;;;11.27;;
74551;SDS011;63025;55.472;38.432;2023-02-01T13:26:20;23.92;;;11.27;;
74551;SDS011;63025;55.472;38.432;2023-02-01T13:42:54;23.40;;;11.10;;
74551;SDS011;63025;55.472;38.432;2023-02-01T13:45:24;22.85;;;10.52;;
74551;SDS011;63025;55.472;38.432;2023-02-01T13:47:54;25.52;;;12.00;;
74551;SDS011;63025;55.472;38.432;2023-02-01T13:50:28;25.98;;;11.60;;
74551;SDS011;63025;55.472;38.432;2023-02-01T13:53:03;24.55;;;11.43;;
74551;SDS011;63025;55.472;38.432;2023-02-01T13:55:39;22.45;;;10.98;;
74551;SDS011;63025;55.472;38.432;2023-02-01T14:00:48;24.05;;;10.45;;
74551;SDS011;63025;55.472;38.432;2023-02-01T14:03:20;25.90;;;11.93;;
74551;SDS011;63025;55.472;38.432;2023-02-01T14:08:20;26.48;;;11.82;;
74551;SDS011;63025;55.472;38.432;2023-02-01T14:11:02;26.83;;;11.57;;
74551;SDS011;63025;55.472;38.432;2023-02-01T14:13:38;28.35;;;11.77;;
74551;SDS011;63025;55.472;38.432;2023-02-01T14:24:00;27.95;;;13.25;;
74551;SDS011;63025;55.472;38.432;2023-02-01T14:31:52;30.33;;;12.57;;
74551;SDS011;63025;55.472;38.432;2023-02-01T14:34:21;30.30;;;14.13;;
74551;SDS011;63025;55.472;38.432;2023-02-01T14:37:01;26.55;;;12.68;;
74551;SDS011;63025;55.472;38.432;2023-02-01T14:42:19;29.52;;;13.20;;
74551;SDS011;63025;55.472;38.432;2023-02-01T14:44:48;31.67;;;13.65;;
74551;SDS011;63025;55.472;38.432;2023-02-01T14:49:54;28.25;;;13.30;;
74551;SDS011;63025;55.472;38.432;2023-02-01T14:52:33;32.42;;;13.93;;
74551;SDS011;63025;55.472;38.432;2023-02-01T14:55:18;31.80;;;13.25;;
74551;SDS011;63025;55.472;38.432;2023-02-01T14:58:01;30.77;;;13.75;;
74551;SDS011;63025;55.472;38.432;2023-02-01T15:00:32;29.30;;;13.65;;
74551;SDS011;63025;55.472;38.432;2023-02-01T15:03:16;29.90;;;14.25;;
74551;SDS011;63025;55.472;38.432;2023-02-01T15:06:13;30.00;;;13.48;;
74551;SDS011;63025;55.472;38.432;2023-02-01T15:08:47;30.45;;;14.07;;
74551;SDS011;63025;55.472;38.432;2023-02-01T15:11:15;30.10;;;14.80;;
74551;SDS011;63025;55.472;38.432;2023-02-01T15:13:47;29.73;;;13.55;;
74551;SDS011;63025;55.472;38.432;2023-02-01T15:16:16;33.85;;;14.00;;
74551;SDS011;63025;55.472;38.432;2023-02-01T15:18:42;29.00;;;12.48;;
74551;SDS011;63025;55.472;38.432;2023-02-01T15:21:18;28.17;;;13.50;;
74551;SDS011;63025;55.472;38.432;2023-02-01T15:23:46;31.50;;;14.65;;
74551;SDS011;63025;55.472;38.432;2023-02-01T15:26:29;29.83;;;13.80;;
74551;SDS011;63025;55.472;38.432;2023-02-01T15:28:59;30.40;;;13.98;;
74551;SDS011;63025;55.472;38.432;2023-02-01T15:31:33;30.55;;;14.35;;
74551;SDS011;63025;55.472;38.432;2023-02-01T15:34:06;29.88;;;13.68;;
74551;SDS011;63025;55.472;38.432;2023-02-01T15:36:32;33.22;;;14.82;;
74551;SDS011;63025;55.472;38.432;2023-02-01T15:39:12;29.02;;;13.45;;
74551;SDS011;63025;55.472;38.432;2023-02-01T15:41:39;30.20;;;13.88;;
74551;SDS011;63025;55.472;38.432;2023-02-01T15:44:20;31.58;;;13.32;;
74551;SDS011;63025;55.472;38.432;2023-02-01T15:46:53;30.17;;;13.65;;
74551;SDS011;63025;55.472;38.432;2023-02-01T15:49:31;30.83;;;13.05;;
74551;SDS011;63025;55.472;38.432;2023-02-01T15:52:02;29.55;;;14.25;;
74551;SDS011;63025;55.472;38.432;2023-02-01T15:54:42;32.00;;;14.07;;
74551;SDS011;63025;55.472;38.432;2023-02-01T15:57:18;30.23;;;13.60;;
74551;SDS011;63025;55.472;38.432;2023-02-01T15:59:47;31.35;;;14.68;;
74551;SDS011;63025;55.472;38.432;2023-02-01T16:02:35;32.40;;;14.07;;
74551;SDS011;63025;55.472;38.432;2023-02-01T16:05:05;32.05;;;14.27;;
74551;SDS011;63025;55.472;38.432;2023-02-01T16:08:05;34.95;;;14.13;;
74551;SDS011;63025;55.472;38.432;2023-02-01T16:10:44;32.33;;;14.55;;
74551;SDS011;63025;55.472;38.432;2023-02-01T16:13:18;32.70;;;14.75;;
74551;SDS011;63025;55.472;38.432;2023-02-01T16:15:45;33.58;;;14.82;;
74551;SDS011;63025;55.472;38.432;2023-02-01T16:18:12;32.67;;;14.48;;
74551;SDS011;63025;55.472;38.432;2023-02-01T16:20:40;33.30;;;15.27;;
74551;SDS011;63025;55.472;38.432;2023-02-01T16:23:06;30.40;;;13.80;;
74551;SDS011;63025;55.472;38.432;2023-02-01T16:25:33;30.85;;;13.40;;
74551;SDS011;63025;55.472;38.432;2023-02-01T16:27:59;29.15;;;13.75;;
74551;SDS011;63025;55.472;38.432;2023-02-01T16:30:25;32.42;;;14.52;;
74551;SDS011;63025;55.472;38.432;2023-02-01T16:33:01;29.83;;;13.10;;
74551;SDS011;63025;55.472;38.432;2023-02-01T16:35:29;33.38;;;13.60;;
74551;SDS011;63025;55.472;38.432;2023-02-01T16:38:04;30.13;;;14.48;;
74551;SDS011;63025;55.472;38.432;2023-02-01T16:40:37;28.60;;;13.85;;
74551;SDS011;63025;55.472;38.432;2023-02-01T16:43:19;31.33;;;14.00;;
74551;SDS011;63025;55.472;38.432;2023-02-01T16:50:45;30.88;;;13.43;;
74551;SDS011;63025;55.472;38.432;2023-02-01T16:53:12;28.38;;;13.93;;
74551;SDS011;63025;55.472;38.432;2023-02-01T16:55:41;32.65;;;15.15;;
74551;SDS011;63025;55.472;38.432;2023-02-01T16:58:09;29.95;;;14.10;;
74551;SDS011;63025;55.472;38.432;2023-02-01T17:00:35;33.15;;;13.77;;